createdAt,value
2022-08-11T00:01:47.894Z,99624.62
2022-08-11T00:04:55.129Z,99630.06
2022-08-11T00:08:01.298Z,99626.90
2022-08-11T00:11:09.642Z,99625.80
2022-08-11T00:14:20.624Z,99626.52
2022-08-11T00:17:31.189Z,99628.22
2022-08-11T00:20:41.153Z,99626.30
2022-08-11T00:23:54.053Z,99631.81
2022-08-11T00:26:59.516Z,99629.96
2022-08-11T00:30:06.145Z,99623.52
2022-08-11T00:33:12.011Z,99623.06
2022-08-11T00:36:23.444Z,99624.10
2022-08-11T00:39:33.397Z,99630.48
2022-08-11T00:42:56.545Z,99637.01
2022-08-11T00:46:28.979Z,99637.27
2022-08-11T00:49:46.507Z,99632.98
2022-08-11T00:53:13.932Z,99625.48
2022-08-11T00:56:49.546Z,99625.42
2022-08-11T01:00:16.622Z,99626.84
2022-08-11T01:03:35.800Z,99630.10
2022-08-11T01:08:01.222Z,99625.77
2022-08-11T01:11:13.894Z,99616.82
2022-08-11T01:15:02.041Z,99613.43
2022-08-11T01:18:50.620Z,99615.52
2022-08-11T01:22:27.793Z,99613.95
2022-08-11T01:25:57.943Z,99620.72
2022-08-11T01:29:42.611Z,99627.10
2022-08-11T01:33:24.770Z,99625.61
2022-08-11T01:37:02.627Z,99623.07
2022-08-11T01:40:26.072Z,99624.16
2022-08-11T01:44:28.848Z,99620.33
2022-08-11T01:47:54.307Z,99612.91
2022-08-11T01:51:17.158Z,99617.88
2022-08-11T01:54:32.509Z,99616.65
2022-08-11T01:57:45.611Z,99619.23
2022-08-11T02:00:59.214Z,99611.40
2022-08-11T02:04:19.712Z,99611.86
2022-08-11T02:07:35.485Z,99609.75
2022-08-11T02:11:07.839Z,99608.25
2022-08-11T02:14:25.925Z,99607.20
2022-08-11T02:17:49.738Z,99606.77
2022-08-11T02:21:19.147Z,99605.64
2022-08-11T02:24:35.259Z,99608.51
2022-08-11T02:27:46.613Z,99602.76
2022-08-11T02:32:10.930Z,99601.77
2022-08-11T02:35:00.177Z,99601.08
2022-08-11T02:38:18.452Z,99604.05
2022-08-11T02:41:50.171Z,99615.77
2022-08-11T02:45:18.020Z,99612.72
2022-08-11T02:49:05.699Z,99617.84
2022-08-11T02:52:21.283Z,99612.14
2022-08-11T02:55:56.425Z,99614.98
2022-08-11T02:59:22.664Z,99610.39
2022-08-11T03:02:41.379Z,99617.12
2022-08-11T03:06:03.689Z,99617.00
2022-08-11T03:09:19.053Z,99620.11
2022-08-11T03:12:53.779Z,99622.48
2022-08-11T03:16:36.591Z,99620.01
2022-08-11T03:19:54.687Z,99617.02
2022-08-11T03:23:19.671Z,99623.98
2022-08-11T03:26:31.916Z,99625.59
2022-08-11T03:29:44.054Z,99626.91
2022-08-11T03:33:32.955Z,99626.40
2022-08-11T03:37:16.959Z,99618.80
2022-08-11T03:41:00.226Z,99620.48
2022-08-11T03:44:19.755Z,99623.75
2022-08-11T03:47:58.392Z,99624.76
2022-08-11T03:51:13.780Z,99620.42
2022-08-11T03:54:30.269Z,99618.34
2022-08-11T03:58:05.952Z,99617.46
2022-08-11T04:01:49.597Z,99616.54
2022-08-11T04:05:16.336Z,99616.79
2022-08-11T04:08:42.148Z,99612.48
2022-08-11T04:16:11.444Z,99612.05
2022-08-11T04:20:04.253Z,99609.90
2022-08-11T04:24:35.147Z,99612.61
2022-08-11T04:27:14.604Z,99611.38
2022-08-11T04:30:28.973Z,99618.52
2022-08-11T04:33:56.604Z,99617.92
2022-08-11T04:37:57.089Z,99616.02
2022-08-11T04:42:17.932Z,99617.36
2022-08-11T04:45:50.604Z,99620.91
2022-08-11T04:50:00.544Z,99626.58
2022-08-11T04:53:41.956Z,99635.70
2022-08-11T04:57:07.258Z,99635.85
2022-08-11T05:00:32.274Z,99635.62
2022-08-11T05:04:55.357Z,99636.86
2022-08-11T05:08:35.770Z,99637.05
2022-08-11T05:12:03.901Z,99643.19
2022-08-11T05:15:50.956Z,99644.19
2022-08-11T05:19:18.048Z,99646.42
2022-08-11T05:22:47.386Z,99648.08
2022-08-11T05:26:47.077Z,99652.36
2022-08-11T05:30:05.121Z,99653.17
2022-08-11T05:33:33.833Z,99652.02
2022-08-11T05:36:49.514Z,99652.59
2022-08-11T05:40:25.833Z,99650.67
2022-08-11T05:44:20.867Z,99653.79
2022-08-11T05:47:39.794Z,99656.58
2022-08-11T05:51:11.665Z,99657.94
2022-08-11T05:54:40.703Z,99662.35
2022-08-11T05:57:51.415Z,99665.06
2022-08-11T06:00:59.244Z,99665.71
2022-08-11T06:04:17.595Z,99667.30
2022-08-11T06:07:47.341Z,99672.14
2022-08-11T06:11:01.113Z,99664.27
2022-08-11T06:14:07.437Z,99664.19
2022-08-11T06:17:14.299Z,99668.23
2022-08-11T06:20:21.549Z,99670.44
2022-08-11T06:23:36.249Z,99666.41
2022-08-11T06:27:11.371Z,99664.80
2022-08-11T06:30:15.220Z,99666.71
2022-08-11T06:33:30.959Z,99663.79
2022-08-11T06:36:41.367Z,99661.84
2022-08-11T06:39:53.693Z,99656.38
2022-08-11T06:43:03.485Z,99653.02
2022-08-11T06:46:12.434Z,99648.29
2022-08-11T06:49:56.331Z,99640.50
2022-08-11T06:53:03.577Z,99647.73
2022-08-11T06:56:29.185Z,99645.09
2022-08-11T06:59:55.546Z,99647.21
2022-08-11T07:03:09.372Z,99643.21
2022-08-11T07:06:35.739Z,99645.02
2022-08-11T07:10:44.176Z,99643.36
2022-08-11T07:14:11.212Z,99647.84
2022-08-11T07:17:21.009Z,99647.41
2022-08-11T07:20:44.292Z,99650.83
2022-08-11T07:24:07.806Z,99653.55
2022-08-11T07:27:37.655Z,99649.36
2022-08-11T07:30:44.872Z,99646.41
2022-08-11T07:34:07.014Z,99647.48
2022-08-11T07:37:20.708Z,99646.55
2022-08-11T07:40:27.745Z,99642.35
2022-08-11T07:43:36.508Z,99643.61
2022-08-11T07:47:04.035Z,99638.01
2022-08-11T07:50:29.758Z,99641.55
2022-08-11T07:53:41.773Z,99638.93
2022-08-11T07:58:13.833Z,99636.27
2022-08-11T08:01:22.038Z,99635.92
2022-08-11T08:04:47.480Z,99631.85
2022-08-11T08:08:11.144Z,99628.74
2022-08-11T08:11:38.535Z,99623.61
2022-08-11T08:15:01.911Z,99623.73
2022-08-11T08:18:26.769Z,99624.15
2022-08-11T08:21:33.725Z,99625.23
2022-08-11T08:24:42.059Z,99618.45
2022-08-11T08:27:48.560Z,99616.99
2022-08-11T08:30:56.400Z,99611.72
2022-08-11T08:34:02.152Z,99609.58
2022-08-11T08:37:15.771Z,99607.82
2022-08-11T08:40:34.406Z,99610.27
2022-08-11T08:43:48.555Z,99608.14
2022-08-11T08:46:59.187Z,99610.59
2022-08-11T08:50:09.364Z,99602.07
2022-08-11T08:53:24.785Z,99595.49
2022-08-11T08:56:34.599Z,99599.33
2022-08-11T08:59:49.282Z,99601.14
2022-08-11T09:02:57.801Z,99595.13
2022-08-11T09:06:03.311Z,99592.36
2022-08-11T09:09:08.966Z,99588.42
2022-08-11T09:12:15.543Z,99584.05
2022-08-11T09:15:22.392Z,99584.43
2022-08-11T09:18:33.502Z,99578.33
2022-08-11T09:21:49.411Z,99572.84
2022-08-11T09:25:13.603Z,99573.16
2022-08-11T09:28:20.899Z,99570.83
2022-08-11T09:31:26.927Z,99567.11
2022-08-11T09:34:36.807Z,99566.68
2022-08-11T09:38:01.307Z,99561.11
2022-08-11T09:41:09.792Z,99558.84
2022-08-11T09:44:34.371Z,99561.41
2022-08-11T09:47:40.610Z,99563.90
2022-08-11T09:50:49.328Z,99568.42
2022-08-11T09:54:02.716Z,99561.86
2022-08-11T09:57:27.221Z,99552.82
2022-08-11T10:00:37.395Z,99550.64
2022-08-11T10:03:45.014Z,99550.53
2022-08-11T10:07:04.843Z,99552.19
2022-08-11T10:10:12.545Z,99553.83
2022-08-11T10:14:30.792Z,99539.47
2022-08-11T10:16:53.054Z,99534.79
2022-08-11T10:20:05.877Z,99520.20
2022-08-11T10:23:31.377Z,99523.46
2022-08-11T10:26:54.937Z,99520.88
2022-08-11T10:30:20.657Z,99514.58
2022-08-11T10:33:49.190Z,99507.61
2022-08-11T10:37:04.161Z,99511.10
2022-08-11T10:40:12.245Z,99506.80
2022-08-11T10:44:01.578Z,99501.27
2022-08-11T10:47:13.467Z,99494.55
2022-08-11T10:50:37.081Z,99480.84
2022-08-11T10:54:03.131Z,99482.06
2022-08-11T10:57:27.866Z,99477.86
2022-08-11T11:00:35.092Z,99475.64
2022-08-11T11:03:41.175Z,99476.91
2022-08-11T11:06:59.259Z,99479.64
2022-08-11T11:10:09.313Z,99470.40
2022-08-11T11:13:55.133Z,99471.45
2022-08-11T11:17:19.006Z,99467.64
2022-08-11T11:20:36.587Z,99464.96
2022-08-11T11:23:54.295Z,99463.50
2022-08-11T11:27:08.900Z,99466.17
2022-08-11T11:30:15.670Z,99469.09
2022-08-11T11:33:29.837Z,99471.66
2022-08-11T11:36:46.104Z,99489.91
2022-08-11T11:39:52.242Z,99490.39
2022-08-11T11:43:00.546Z,99484.04
2022-08-11T11:46:11.094Z,99476.81
2022-08-11T11:49:18.752Z,99469.39
2022-08-11T11:52:25.158Z,99465.80
2022-08-11T11:55:31.656Z,99459.60
2022-08-11T11:58:56.445Z,99451.20
2022-08-11T12:02:11.692Z,99444.01
2022-08-11T12:05:19.341Z,99438.56
2022-08-11T12:08:28.125Z,99434.64
2022-08-11T12:11:52.117Z,99431.44
2022-08-11T12:14:58.381Z,99432.59
2022-08-11T12:18:04.960Z,99435.84
2022-08-11T12:21:11.303Z,99461.19
2022-08-11T12:24:45.816Z,99495.61
2022-08-11T12:27:54.003Z,99492.46
2022-08-11T12:31:00.074Z,99481.12
2022-08-11T12:34:07.881Z,99489.16
2022-08-11T12:37:14.958Z,99492.45
2022-08-11T12:41:11.815Z,99495.23
2022-08-11T12:44:30.788Z,99488.84
2022-08-11T12:48:37.831Z,99491.70
2022-08-11T12:52:01.543Z,99490.73
2022-08-11T12:55:14.069Z,99481.99
2022-08-11T12:58:21.279Z,99477.13
2022-08-11T13:01:44.791Z,99471.95
2022-08-11T13:04:59.475Z,99469.95
2022-08-11T13:08:06.931Z,99464.77
2022-08-11T13:11:56.720Z,99460.96
2022-08-11T13:14:57.421Z,99461.77
2022-08-11T13:18:04.628Z,99464.32
2022-08-11T13:21:10.960Z,99466.41
2022-08-11T13:24:18.631Z,99469.95
2022-08-11T13:27:25.499Z,99470.16
2022-08-11T13:30:50.420Z,99471.40
2022-08-11T13:33:56.561Z,99465.70
2022-08-11T13:37:05.342Z,99465.67
2022-08-11T13:40:13.769Z,99461.52
2022-08-11T13:43:21.161Z,99462.19
2022-08-11T13:46:28.704Z,99461.25
2022-08-11T13:49:39.970Z,99462.96
2022-08-11T13:52:53.161Z,99462.37
2022-08-11T13:56:01.110Z,99463.26
2022-08-11T13:59:08.269Z,99458.38
2022-08-11T14:02:22.744Z,99451.81
2022-08-11T14:05:39.252Z,99448.38
2022-08-11T14:08:47.414Z,99449.73
2022-08-11T14:12:22.703Z,99450.95
2022-08-11T14:15:33.161Z,99456.64
2022-08-11T14:18:41.237Z,99456.98
2022-08-11T14:22:07.856Z,99448.20
2022-08-11T14:25:16.862Z,99448.22
2022-08-11T14:28:31.146Z,99448.40
2022-08-11T14:31:44.776Z,99448.88
2022-08-11T14:34:51.443Z,99450.52
2022-08-11T14:38:00.368Z,99447.23
2022-08-11T14:41:29.719Z,99444.14
2022-08-11T14:44:58.224Z,99441.02
2022-08-11T14:48:06.592Z,99438.42
2022-08-11T14:51:12.362Z,99432.83
2022-08-11T14:54:36.209Z,99426.05
2022-08-11T14:57:55.519Z,99424.91
2022-08-11T15:01:24.875Z,99409.83
2022-08-11T15:04:36.256Z,99407.52
2022-08-11T15:07:42.739Z,99405.32
2022-08-11T15:10:50.470Z,99406.23
2022-08-11T15:13:59.735Z,99403.52
2022-08-11T15:17:09.201Z,99404.98
2022-08-11T15:20:36.626Z,99404.83
2022-08-11T15:24:00.843Z,99412.93
2022-08-11T15:27:28.172Z,99418.13
2022-08-11T15:30:52.773Z,99418.93
2022-08-11T15:34:19.213Z,99415.29
2022-08-11T15:37:29.644Z,99418.07
2022-08-11T15:40:57.852Z,99417.78
2022-08-11T15:44:44.635Z,99415.23
2022-08-11T15:48:05.057Z,99413.02
2022-08-11T15:51:15.656Z,99417.67
2022-08-11T15:54:24.867Z,99418.00
2022-08-11T15:57:48.891Z,99415.58
2022-08-11T16:01:13.841Z,99411.41
2022-08-11T16:04:25.080Z,99408.23
2022-08-11T16:07:36.375Z,99405.02
2022-08-11T16:10:47.371Z,99399.68
2022-08-11T16:14:14.318Z,99395.89
2022-08-11T16:17:22.492Z,99399.86
2022-08-11T16:20:30.341Z,99404.80
2022-08-11T16:23:36.604Z,99404.35
2022-08-11T16:27:11.571Z,99408.45
2022-08-11T16:30:13.785Z,99409.39
2022-08-11T16:33:49.492Z,99409.75
2022-08-11T16:37:04.752Z,99410.34
2022-08-11T16:40:13.218Z,99409.90
2022-08-11T16:43:39.895Z,99403.95
2022-08-11T16:47:00.920Z,99408.44
2022-08-11T16:50:08.716Z,99420.32
2022-08-11T16:53:15.460Z,99426.63
2022-08-11T16:56:24.382Z,99423.84
2022-08-11T16:59:34.876Z,99418.08
2022-08-11T17:03:03.496Z,99417.21
2022-08-11T17:06:30.224Z,99417.16
2022-08-11T17:09:57.475Z,99416.46
2022-08-11T17:13:12.191Z,99415.52
2022-08-11T17:16:25.015Z,99405.33
2022-08-11T17:20:42.363Z,99410.31
2022-08-11T17:23:26.518Z,99407.87
2022-08-11T17:26:57.206Z,99409.45
2022-08-11T17:30:07.431Z,99409.77
2022-08-11T17:33:32.699Z,99417.30
2022-08-11T17:36:45.116Z,99423.66
2022-08-11T17:39:53.494Z,99421.84
2022-08-11T17:43:24.657Z,99416.19
2022-08-11T17:46:48.820Z,99415.84
2022-08-11T17:49:55.793Z,99412.59
2022-08-11T17:53:35.035Z,99410.40
2022-08-11T17:56:58.292Z,99415.06
2022-08-11T18:00:07.256Z,99420.08
2022-08-11T18:03:34.037Z,99414.80
2022-08-11T18:06:41.637Z,99405.77
2022-08-11T18:10:05.053Z,99403.05
2022-08-11T18:13:29.186Z,99401.27
2022-08-11T18:16:52.541Z,99402.07
2022-08-11T18:20:16.064Z,99400.80
2022-08-11T18:23:46.649Z,99401.58
2022-08-11T18:27:12.481Z,99403.92
2022-08-11T18:30:34.825Z,99409.08
2022-08-11T18:34:07.642Z,99406.59
2022-08-11T18:37:35.489Z,99409.70
2022-08-11T18:40:59.446Z,99409.80
2022-08-11T18:44:27.346Z,99411.70
2022-08-11T18:47:53.429Z,99410.81
2022-08-11T18:51:36.259Z,99417.55
2022-08-11T18:55:03.396Z,99418.05
2022-08-11T18:58:29.569Z,99416.45
2022-08-11T19:01:56.784Z,99420.36
2022-08-11T19:05:20.979Z,99421.66
2022-08-11T19:09:12.358Z,99426.83
2022-08-11T19:12:36.876Z,99425.86
2022-08-11T19:16:01.999Z,99424.55
2022-08-11T19:19:33.065Z,99427.45
2022-08-11T19:22:56.953Z,99435.45
2022-08-11T19:26:21.872Z,99437.60
2022-08-11T19:30:05.048Z,99434.14
2022-08-11T19:34:02.971Z,99427.52
2022-08-11T19:37:15.064Z,99426.77
2022-08-11T19:40:38.908Z,99424.77
2022-08-11T19:44:06.092Z,99425.33
2022-08-11T19:47:29.863Z,99420.98
2022-08-11T19:50:54.540Z,99429.75
2022-08-11T19:54:18.886Z,99432.59
2022-08-11T19:57:44.277Z,99426.81
2022-08-11T20:01:08.064Z,99427.75
2022-08-11T20:04:31.807Z,99429.96
2022-08-11T20:07:56.453Z,99429.89
2022-08-11T20:11:20.842Z,99435.65
2022-08-11T20:14:46.776Z,99440.06
2022-08-11T20:18:10.619Z,99436.48
2022-08-11T20:21:34.497Z,99438.17
2022-08-11T20:24:59.545Z,99435.35
2022-08-11T20:28:24.779Z,99441.46
2022-08-11T20:31:48.780Z,99438.09
2022-08-11T20:35:14.301Z,99439.80
2022-08-11T20:38:37.213Z,99440.97
2022-08-11T20:42:01.432Z,99453.56
2022-08-11T20:45:26.853Z,99453.73
2022-08-11T20:48:52.472Z,99451.91
2022-08-11T20:52:14.479Z,99457.19
2022-08-11T20:55:51.932Z,99459.69
2022-08-11T20:59:22.108Z,99461.66
2022-08-11T21:02:50.070Z,99457.55
2022-08-11T21:06:14.429Z,99456.48
2022-08-11T21:09:58.564Z,99458.11
2022-08-11T21:13:34.287Z,99466.82
2022-08-11T21:17:27.197Z,99471.19
2022-08-11T21:20:48.169Z,99474.04
2022-08-11T21:24:16.699Z,99473.35
2022-08-11T21:27:40.740Z,99473.73
2022-08-11T21:31:04.667Z,99475.27
2022-08-11T21:34:29.450Z,99478.55
2022-08-11T21:37:54.199Z,99479.84
2022-08-11T21:41:19.176Z,99483.21
2022-08-11T21:44:44.508Z,99488.42
2022-08-11T21:48:09.956Z,99488.35
2022-08-11T21:51:33.342Z,99492.34
2022-08-11T21:54:57.760Z,99494.56
2022-08-11T21:58:21.876Z,99493.29
2022-08-11T22:01:46.366Z,99494.39
2022-08-11T22:05:09.994Z,99492.64
2022-08-11T22:08:34.930Z,99494.56
2022-08-11T22:12:30.034Z,99500.23
2022-08-11T22:15:41.768Z,99501.41
2022-08-11T22:19:06.288Z,99500.20
2022-08-11T22:22:31.807Z,99503.33
2022-08-11T22:25:59.806Z,99500.80
2022-08-11T22:29:50.552Z,99495.88
2022-08-11T22:33:08.801Z,99491.48
2022-08-11T22:36:34.050Z,99488.23
2022-08-11T22:40:02.208Z,99487.11
2022-08-11T22:43:26.519Z,99485.59
2022-08-11T22:46:52.215Z,99478.94
2022-08-11T22:50:16.032Z,99477.84
2022-08-11T22:53:58.576Z,99478.33
2022-08-11T22:57:23.234Z,99470.63
2022-08-11T23:00:47.221Z,99467.55
2022-08-11T23:04:11.486Z,99466.28
2022-08-11T23:07:49.720Z,99461.67
2022-08-11T23:11:16.817Z,99456.05
2022-08-11T23:14:41.050Z,99452.23
2022-08-11T23:18:05.813Z,99449.17
2022-08-11T23:21:30.283Z,99445.74
2022-08-11T23:24:54.126Z,99444.81
2022-08-11T23:28:19.921Z,99440.52
2022-08-11T23:31:50.978Z,99438.80
2022-08-11T23:35:38.128Z,99439.05
2022-08-11T23:39:02.403Z,99441.00
2022-08-11T23:42:26.116Z,99440.04
2022-08-11T23:45:51.392Z,99433.73
2022-08-11T23:49:20.172Z,99431.89
2022-08-11T23:52:44.460Z,99432.52
2022-08-11T23:56:08.375Z,99430.77
2022-08-11T23:59:32.692Z,99433.45
